Time;durP1;ratioP1;P1;durP2;ratioP2;P2;SDS_P1;SDS_P2;PMS_P1;PMS_P2;Temp;Humidity;BMP_temperature;BMP_pressure;BME280_temperature;BME280_humidity;BME280_pressure;Samples;Min_cycle;Max_cycle;Signal;HPM_P1;HPM_P2
2021/01/03 00:02:08;;;;;;;44.00;25.33;;;6.50;99.90;;;;;;4899240;29;20177;-86
2021/01/03 00:04:35;;;;;;;39.80;24.90;;;6.60;99.90;;;;;;4898901;29;20179;-85
2021/01/03 00:07:01;;;;;;;39.83;26.93;;;6.60;99.90;;;;;;4896635;29;20185;-85
2021/01/03 00:09:27;;;;;;;40.90;25.97;;;6.60;99.90;;;;;;4900038;29;20178;-85
2021/01/03 00:11:53;;;;;;;42.40;25.70;;;6.60;99.90;;;;;;4899637;29;20220;-82
2021/01/03 00:14:20;;;;;;;36.77;25.57;;;6.60;99.90;;;;;;4898455;29;20185;-85
2021/01/03 00:16:47;;;;;;;39.30;25.17;;;6.60;99.90;;;;;;4898187;29;20170;-82
2021/01/03 00:19:14;;;;;;;41.10;26.53;;;6.50;99.90;;;;;;4898364;29;20723;-82
2021/01/03 00:21:39;;;;;;;40.07;25.70;;;6.30;99.90;;;;;;4896961;29;20185;-81
2021/01/03 00:24:06;;;;;;;38.20;25.13;;;6.10;99.90;;;;;;4898227;29;20265;-82
2021/01/03 00:26:32;;;;;;;41.60;25.57;;;6.20;99.90;;;;;;4894064;29;20242;-84
2021/01/03 00:28:57;;;;;;;38.03;24.83;;;6.10;99.90;;;;;;4893149;29;20590;-80
2021/01/03 00:31:24;;;;;;;43.43;26.00;;;6.10;99.90;;;;;;4896882;29;20221;-81
2021/01/03 00:33:50;;;;;;;37.53;24.87;;;6.00;99.90;;;;;;4896917;29;20218;-81
2021/01/03 00:36:16;;;;;;;39.97;24.70;;;5.80;99.90;;;;;;4897974;29;20206;-82
2021/01/03 00:38:42;;;;;;;40.53;25.07;;;5.70;99.90;;;;;;4896910;29;20182;-81
2021/01/03 00:41:08;;;;;;;41.27;25.53;;;5.70;99.90;;;;;;4897453;29;20230;-84
2021/01/03 00:43:33;;;;;;;43.93;26.07;;;5.60;99.90;;;;;;4896523;29;20230;-81
2021/01/03 00:45:59;;;;;;;40.13;24.40;;;5.50;99.90;;;;;;4896714;29;20661;-82
2021/01/03 00:48:25;;;;;;;42.07;25.73;;;5.50;99.90;;;;;;4898002;29;20662;-81
2021/01/03 00:50:50;;;;;;;40.57;25.17;;;5.60;99.90;;;;;;4896764;29;20177;-82
2021/01/03 00:53:16;;;;;;;38.80;25.27;;;5.60;99.90;;;;;;4896511;29;20218;-87
2021/01/03 00:55:41;;;;;;;42.37;26.43;;;5.70;99.90;;;;;;4896669;29;20171;-82
2021/01/03 00:58:07;;;;;;;43.00;26.27;;;5.60;99.90;;;;;;4896604;29;20648;-83
2021/01/03 01:00:34;;;;;;;41.27;25.07;;;5.50;99.90;;;;;;4897989;29;20253;-82
2021/01/03 01:03:04;;;;;;;40.27;25.50;;;5.60;99.90;;;;;;4897015;29;20186;-82
2021/01/03 01:05:30;;;;;;;40.33;25.67;;;5.60;99.90;;;;;;4897404;29;20174;-83
2021/01/03 01:07:55;;;;;;;39.73;25.90;;;5.50;99.90;;;;;;4897935;29;20189;-84
2021/01/03 01:10:25;;;;;;;39.27;25.80;;;5.40;99.90;;;;;;4904615;29;20266;-83
2021/01/03 01:12:54;;;;;;;39.93;25.40;;;5.40;99.90;;;;;;4907729;29;20289;-82
2021/01/03 01:15:23;;;;;;;41.67;25.97;;;5.30;99.90;;;;;;4913802;29;20185;-82
2021/01/03 01:17:53;;;;;;;41.13;26.30;;;5.30;99.90;;;;;;4921180;29;20254;-85
2021/01/03 01:20:39;;;;;;;36.20;24.07;;;5.30;99.90;;;;;;4921298;29;20166;-85
2021/01/03 01:23:08;;;;;;;41.57;25.57;;;5.40;99.90;;;;;;4920411;29;20237;-83
2021/01/03 01:25:34;;;;;;;36.60;23.60;;;5.50;99.90;;;;;;4920018;29;20183;-81
2021/01/03 01:28:01;;;;;;;37.80;24.73;;;5.50;99.90;;;;;;4913361;29;20193;-82
2021/01/03 01:30:30;;;;;;;40.73;25.13;;;5.50;99.90;;;;;;4900619;29;20649;-83
2021/01/03 01:32:57;;;;;;;42.90;25.53;;;5.60;99.90;;;;;;4900172;29;20262;-84
2021/01/03 01:35:27;;;;;;;39.70;24.70;;;5.50;99.90;;;;;;4899486;29;20178;-82
2021/01/03 01:37:54;;;;;;;38.47;24.40;;;5.60;99.90;;;;;;4899275;29;20554;-83
2021/01/03 01:44:13;;;;;;;42.83;25.27;;;5.50;99.90;;;;;;4902084;29;20182;-82
2021/01/03 01:47:18;;;;;;;43.60;26.30;;;5.50;99.90;;;;;;4900621;29;20186;-82
2021/01/03 01:49:51;;;;;;;39.87;24.80;;;5.50;99.90;;;;;;4900605;29;20278;-82
2021/01/03 01:52:20;;;;;;;45.43;26.40;;;5.60;99.90;;;;;;4900283;29;20210;-82
2021/01/03 01:54:54;;;;;;;44.27;26.50;;;5.60;99.90;;;;;;4900155;29;20645;-82
2021/01/03 01:57:41;;;;;;;46.63;27.63;;;5.50;99.90;;;;;;4902067;29;20338;-88
2021/01/03 02:00:22;;;;;;;41.80;26.07;;;5.50;99.90;;;;;;4905741;29;20170;-85
2021/01/03 02:03:10;;;;;;;45.47;26.47;;;5.50;99.90;;;;;;4920044;29;20241;-84
2021/01/03 02:05:55;;;;;;;41.80;25.50;;;5.50;99.90;;;;;;4921551;29;20170;-83
2021/01/03 02:08:29;;;;;;;45.10;27.83;;;5.40;99.90;;;;;;4920377;29;20179;-87
2021/01/03 02:10:57;;;;;;;47.83;27.80;;;5.40;99.90;;;;;;4918641;29;20206;-84
2021/01/03 02:13:36;;;;;;;46.27;26.60;;;5.40;99.90;;;;;;4923985;29;20222;-84
2021/01/03 02:16:10;;;;;;;45.43;26.57;;;5.50;99.90;;;;;;4923420;29;20193;-85
2021/01/03 02:18:36;;;;;;;47.13;27.70;;;5.40;99.90;;;;;;4920359;29;20829;-84
2021/01/03 02:21:23;;;;;;;44.90;26.47;;;5.50;99.90;;;;;;4918796;29;20230;-84
2021/01/03 02:24:04;;;;;;;47.03;27.73;;;5.40;99.90;;;;;;4906947;29;20167;-81
2021/01/03 02:26:40;;;;;;;44.57;27.67;;;5.40;99.90;;;;;;4904911;29;20185;-87
2021/01/03 02:29:12;;;;;;;46.47;26.37;;;5.30;99.90;;;;;;4904318;29;20174;-87
2021/01/03 02:31:45;;;;;;;50.47;29.27;;;5.30;99.90;;;;;;4903031;29;20246;-86
2021/01/03 02:34:23;;;;;;;49.13;28.57;;;5.20;99.90;;;;;;4913665;29;20194;-86
2021/01/03 02:37:34;;;;;;;54.33;30.93;;;5.10;99.90;;;;;;4920597;29;20175;-84
2021/01/03 02:40:17;;;;;;;56.73;31.60;;;5.20;99.90;;;;;;4920593;29;20222;-84
2021/01/03 02:42:44;;;;;;;54.43;31.87;;;5.30;99.90;;;;;;4922203;29;20214;-83
2021/01/03 02:45:39;;;;;;;57.27;32.43;;;5.30;99.90;;;;;;4920060;29;20175;-85
2021/01/03 02:48:13;;;;;;;55.87;28.87;;;5.50;99.90;;;;;;4908227;29;20191;-84
2021/01/03 02:50:40;;;;;;;55.87;30.17;;;5.40;99.90;;;;;;4917287;29;20158;-87
2021/01/03 02:53:05;;;;;;;53.50;29.80;;;5.40;99.90;;;;;;4915926;29;20269;-85
2021/01/03 02:55:31;;;;;;;54.33;31.00;;;5.40;99.90;;;;;;4914287;29;20182;-83
2021/01/03 02:57:57;;;;;;;57.10;32.70;;;5.20;99.90;;;;;;4917198;29;20254;-84
2021/01/03 03:00:30;;;;;;;53.43;31.13;;;5.20;99.90;;;;;;4919965;29;20179;-85
2021/01/03 03:02:57;;;;;;;55.60;31.17;;;5.10;99.90;;;;;;4920887;29;20173;-84
2021/01/03 03:05:23;;;;;;;58.40;31.83;;;5.00;99.90;;;;;;4920568;29;20198;-86
2021/01/03 03:07:49;;;;;;;52.30;29.33;;;4.90;99.90;;;;;;4918498;29;20170;-83
2021/01/03 03:10:15;;;;;;;55.57;30.67;;;4.90;99.90;;;;;;4910371;29;20226;-81
2021/01/03 03:12:41;;;;;;;54.17;29.77;;;4.80;99.90;;;;;;4900661;29;20205;-80
2021/01/03 03:15:09;;;;;;;59.63;29.33;;;4.80;99.90;;;;;;4899949;29;20242;-82
2021/01/03 03:17:35;;;;;;;55.77;29.70;;;4.80;99.90;;;;;;4900320;29;20174;-80
2021/01/03 03:20:02;;;;;;;55.10;28.70;;;4.70;99.90;;;;;;4901570;29;20262;-81
2021/01/03 03:22:28;;;;;;;61.03;27.73;;;4.70;99.90;;;;;;4901316;29;20189;-81
2021/01/03 03:24:53;;;;;;;54.33;27.57;;;4.70;99.90;;;;;;4901450;29;20194;-80
2021/01/03 03:27:19;;;;;;;55.90;28.50;;;4.70;99.90;;;;;;4901260;29;20171;-80
2021/01/03 03:30:09;;;;;;;53.53;28.43;;;4.80;99.90;;;;;;4913055;29;20165;-84
2021/01/03 03:32:35;;;;;;;49.10;25.13;;;5.00;99.90;;;;;;4914171;29;20226;-82
2021/01/03 03:35:02;;;;;;;53.67;27.33;;;4.90;99.90;;;;;;4911352;29;20643;-79
2021/01/03 03:37:28;;;;;;;51.93;28.50;;;4.90;99.90;;;;;;4912179;29;20203;-80
2021/01/03 03:39:53;;;;;;;54.73;28.03;;;4.80;99.90;;;;;;4913472;29;20316;-81
2021/01/03 03:42:19;;;;;;;53.93;27.70;;;4.80;99.90;;;;;;4904197;29;20258;-80
2021/01/03 03:44:46;;;;;;;60.30;29.30;;;4.80;99.90;;;;;;4899680;29;20186;-81
2021/01/03 03:47:13;;;;;;;56.60;29.00;;;4.70;99.90;;;;;;4900131;29;20253;-81
2021/01/03 03:49:39;;;;;;;60.00;28.97;;;4.70;99.90;;;;;;4898433;29;20190;-80
2021/01/03 03:52:06;;;;;;;54.17;28.80;;;4.70;99.90;;;;;;4898949;29;20316;-81
2021/01/03 03:54:32;;;;;;;54.07;29.07;;;4.70;99.90;;;;;;4899618;29;20197;-81
2021/01/03 03:57:01;;;;;;;57.90;30.03;;;4.80;99.90;;;;;;4899629;29;20282;-80
2021/01/03 03:59:30;;;;;;;62.30;29.50;;;4.80;99.90;;;;;;4908683;29;20178;-80
2021/01/03 04:01:59;;;;;;;49.73;25.10;;;4.70;99.90;;;;;;4898610;29;20178;-80
2021/01/03 04:04:26;;;;;;;59.93;28.23;;;4.50;99.90;;;;;;4897429;29;20205;-81
2021/01/03 04:06:56;;;;;;;46.83;24.87;;;4.50;99.90;;;;;;4901001;29;20263;-81
2021/01/03 04:09:25;;;;;;;51.07;26.60;;;4.40;99.90;;;;;;4902045;29;20181;-81
2021/01/03 04:11:51;;;;;;;53.33;26.30;;;4.40;99.90;;;;;;4901215;29;20272;-80
2021/01/03 04:14:21;;;;;;;59.83;27.37;;;4.40;99.90;;;;;;4908238;29;20178;-79
2021/01/03 04:16:55;;;;;;;58.40;29.20;;;4.40;99.90;;;;;;4910531;29;20766;-80
2021/01/03 04:19:21;;;;;;;63.07;30.70;;;4.50;99.90;;;;;;4908455;29;20244;-82
2021/01/03 04:22:02;;;;;;;67.37;31.13;;;4.50;99.90;;;;;;4913265;29;20182;-81
2021/01/03 04:24:30;;;;;;;67.03;30.17;;;4.60;99.90;;;;;;4904980;29;20178;-82
2021/01/03 04:26:58;;;;;;;58.00;29.03;;;4.60;99.90;;;;;;4900774;29;20274;-82
2021/01/03 04:29:24;;;;;;;64.10;29.33;;;4.60;99.90;;;;;;4900294;29;20185;-81
2021/01/03 04:31:58;;;;;;;68.57;31.23;;;4.50;99.90;;;;;;4900604;29;20194;-81
2021/01/03 04:34:26;;;;;;;68.17;29.43;;;4.40;99.90;;;;;;4912935;29;20269;-82
2021/01/03 04:36:55;;;;;;;62.03;29.53;;;4.40;99.90;;;;;;4911950;29;20190;-81
2021/01/03 04:39:22;;;;;;;63.67;28.67;;;4.40;99.90;;;;;;4902793;29;20547;-81
2021/01/03 04:41:49;;;;;;;60.03;27.13;;;4.50;99.90;;;;;;4899387;29;20249;-86
2021/01/03 04:44:26;;;;;;;63.47;29.90;;;4.40;99.90;;;;;;4901845;29;20178;-85
2021/01/03 04:47:01;;;;;;;62.37;29.43;;;4.30;99.90;;;;;;4901781;29;20181;-86
2021/01/03 04:49:39;;;;;;;59.27;27.13;;;4.30;99.90;;;;;;4902666;29;20535;-84
2021/01/03 04:55:24;;;;;;;62.97;27.87;;;4.30;99.90;;;;;;4901706;29;20174;-86
2021/01/03 04:58:17;;;;;;;60.37;27.70;;;4.30;99.90;;;;;;4903947;29;20178;-87
2021/01/03 05:01:26;;;;;;;61.57;26.20;;;4.20;99.90;;;;;;4902530;29;20262;-86
2021/01/03 05:03:59;;;;;;;57.80;25.07;;;4.30;99.90;;;;;;4912469;29;20159;-85
2021/01/03 05:06:25;;;;;;;62.97;27.10;;;4.30;99.90;;;;;;4921667;29;20203;-83
2021/01/03 05:09:07;;;;;;;60.90;23.80;;;4.40;99.90;;;;;;4921310;29;20182;-86
2021/01/03 05:12:11;;;;;;;60.73;25.40;;;4.40;99.90;;;;;;4910544;29;20182;-87
2021/01/03 05:14:47;;;;;;;64.70;27.57;;;4.30;99.90;;;;;;4898871;29;20669;-86
2021/01/03 05:17:13;;;;;;;65.67;27.50;;;4.30;99.90;;;;;;4901937;29;20197;-85
2021/01/03 05:19:38;;;;;;;55.13;26.43;;;4.40;99.90;;;;;;4903399;29;20279;-87
2021/01/03 05:22:04;;;;;;;75.77;26.90;;;4.40;99.90;;;;;;4903081;29;20191;-87
2021/01/03 05:24:41;;;;;;;67.10;27.27;;;4.30;99.90;;;;;;4904134;29;20239;-87
2021/01/03 05:27:16;;;;;;;70.33;28.73;;;4.30;99.90;;;;;;4903176;29;20182;-87
2021/01/03 05:29:43;;;;;;;71.43;27.23;;;4.30;99.90;;;;;;4902866;29;20209;-86
2021/01/03 05:32:11;;;;;;;69.23;27.57;;;4.50;99.90;;;;;;4903684;29;20294;-86
2021/01/03 05:34:44;;;;;;;72.27;28.03;;;4.40;99.90;;;;;;4904328;29;20210;-85
2021/01/03 05:37:23;;;;;;;74.70;28.10;;;4.40;99.90;;;;;;4902952;29;20549;-86
2021/01/03 05:39:50;;;;;;;76.60;28.53;;;4.50;99.90;;;;;;4902141;29;20246;-86
2021/01/03 05:42:25;;;;;;;79.70;29.77;;;4.50;99.90;;;;;;4901875;29;20536;-85
2021/01/03 05:44:57;;;;;;;78.17;30.07;;;4.50;99.90;;;;;;4901305;29;20174;-85
2021/01/03 05:48:00;;;;;;;70.17;27.87;;;4.50;99.90;;;;;;4902524;29;20541;-85
2021/01/03 05:50:28;;;;;;;72.47;28.10;;;4.50;99.90;;;;;;4898439;29;20246;-86
2021/01/03 05:53:30;;;;;;;73.93;28.60;;;4.50;99.90;;;;;;4901393;29;20228;-85
2021/01/03 05:55:59;;;;;;;65.37;26.63;;;4.50;99.90;;;;;;4845140;29;20180;-86
2021/01/03 05:58:37;;;;;;;66.90;26.50;;;4.50;99.90;;;;;;4888215;29;20218;-86
2021/01/03 06:01:21;;;;;;;53.17;22.97;;;4.50;99.90;;;;;;4901186;29;20178;-85
2021/01/03 06:04:05;;;;;;;61.97;25.57;;;4.40;99.90;;;;;;4901550;29;20182;-84
2021/01/03 06:06:54;;;;;;;69.83;26.47;;;4.50;99.90;;;;;;4900917;29;20269;-86
2021/01/03 06:09:40;;;;;;;56.30;24.53;;;4.60;99.90;;;;;;4896824;29;20186;-86
2021/01/03 06:12:19;;;;;;;59.90;25.83;;;4.60;99.90;;;;;;4902098;29;20181;-85
2021/01/03 06:14:50;;;;;;;46.23;21.13;;;4.60;99.90;;;;;;4902353;29;20203;-86
2021/01/03 06:17:44;;;;;;;52.43;23.63;;;4.60;99.90;;;;;;4901058;29;20170;-86
2021/01/03 06:20:23;;;;;;;56.93;24.13;;;4.60;99.90;;;;;;4900881;29;20185;-87
2021/01/03 06:22:51;;;;;;;56.47;24.47;;;4.60;99.90;;;;;;4903414;29;20189;-86
2021/01/03 06:25:41;;;;;;;54.97;24.47;;;4.60;99.90;;;;;;4904935;29;20250;-84
2021/01/03 06:28:25;;;;;;;48.17;22.37;;;4.60;99.90;;;;;;4923828;29;20170;-84
2021/01/03 06:31:32;;;;;;;53.13;22.90;;;4.60;99.90;;;;;;4909981;29;20635;-86
2021/01/03 06:34:16;;;;;;;44.70;21.93;;;4.60;99.90;;;;;;4904370;29;20222;-87
2021/01/03 06:37:06;;;;;;;51.23;22.47;;;4.50;99.90;;;;;;4903157;29;20699;-88
2021/01/03 06:40:06;;;;;;;54.50;22.57;;;4.40;99.90;;;;;;4904412;29;20545;-86
2021/01/03 06:42:44;;;;;;;46.40;21.87;;;4.30;99.90;;;;;;4903420;29;20180;-86
2021/01/03 06:45:59;;;;;;;51.43;23.47;;;4.30;99.90;;;;;;4905347;29;20237;-86
2021/01/03 06:49:02;;;;;;;52.20;23.87;;;4.20;99.90;;;;;;4905614;29;20178;-85
2021/01/03 06:51:53;;;;;;;52.57;24.17;;;4.10;99.90;;;;;;4907432;29;20171;-87
2021/01/03 06:54:40;;;;;;;57.73;25.53;;;4.20;99.90;;;;;;4907045;29;20209;-86
2021/01/03 06:57:32;;;;;;;53.57;24.23;;;4.30;99.90;;;;;;4906549;29;20189;-87
2021/01/03 07:00:20;;;;;;;52.70;24.23;;;4.30;99.90;;;;;;4902763;29;20210;-87
2021/01/03 07:02:54;;;;;;;53.40;24.90;;;4.30;99.90;;;;;;4900718;29;20296;-86
2021/01/03 07:05:20;;;;;;;51.00;24.47;;;4.30;99.90;;;;;;4901151;29;20187;-86
2021/01/03 07:08:03;;;;;;;55.17;25.57;;;4.30;99.90;;;;;;4900995;29;20615;-86
2021/01/03 07:10:38;;;;;;;52.63;25.70;;;4.30;99.90;;;;;;4901106;29;20185;-86
2021/01/03 07:13:29;;;;;;;55.20;26.17;;;4.30;99.90;;;;;;4900781;29;20219;-85
2021/01/03 07:16:01;;;;;;;57.30;26.07;;;4.30;99.90;;;;;;4908802;29;20177;-85
2021/01/03 07:18:27;;;;;;;66.50;29.67;;;4.30;99.90;;;;;;4901987;29;20178;-86
2021/01/03 07:20:56;;;;;;;60.70;25.87;;;4.30;99.90;;;;;;4903851;29;20255;-86
2021/01/03 07:23:32;;;;;;;61.57;29.00;;;4.30;99.90;;;;;;4901327;29;20201;-85
2021/01/03 07:26:23;;;;;;;53.47;25.23;;;4.40;99.90;;;;;;4900747;29;20182;-86
2021/01/03 07:28:54;;;;;;;62.13;28.70;;;4.30;99.90;;;;;;4890305;29;20197;-88
2021/01/03 07:31:40;;;;;;;61.50;28.03;;;4.20;99.90;;;;;;4900154;29;20204;-86
2021/01/03 07:34:23;;;;;;;63.83;29.80;;;4.30;99.90;;;;;;4899526;29;20316;-87
2021/01/03 07:37:13;;;;;;;59.00;27.33;;;4.20;99.90;;;;;;4901973;29;20632;-86
2021/01/03 07:40:06;;;;;;;62.97;29.07;;;4.20;99.90;;;;;;4900253;29;20179;-85
2021/01/03 07:42:44;;;;;;;62.43;27.77;;;4.30;99.90;;;;;;4901112;29;20206;-84
2021/01/03 07:45:13;;;;;;;61.43;28.00;;;4.20;99.90;;;;;;4899826;29;20265;-86
2021/01/03 07:47:43;;;;;;;66.80;29.60;;;4.10;99.90;;;;;;4899217;29;20249;-87
2021/01/03 07:50:27;;;;;;;68.57;28.13;;;4.10;99.90;;;;;;4900067;29;20190;-87
2021/01/03 07:52:59;;;;;;;69.83;29.20;;;4.10;99.90;;;;;;4898909;29;20730;-86
2021/01/03 07:55:31;;;;;;;74.17;33.30;;;4.10;99.90;;;;;;4899365;29;20185;-85
2021/01/03 07:58:01;;;;;;;72.63;32.10;;;4.20;99.90;;;;;;4899813;29;20197;-85
2021/01/03 08:00:36;;;;;;;72.60;31.13;;;4.20;99.90;;;;;;4899508;29;20178;-85
2021/01/03 08:03:03;;;;;;;67.97;29.53;;;4.20;99.90;;;;;;4900756;29;20178;-83
2021/01/03 08:05:29;;;;;;;70.30;32.73;;;4.20;99.90;;;;;;4901997;29;20651;-87
2021/01/03 08:08:21;;;;;;;73.07;31.27;;;4.40;99.90;;;;;;4903502;29;20174;-86
2021/01/03 08:10:49;;;;;;;69.27;31.03;;;4.30;99.90;;;;;;4897340;29;20191;-86
2021/01/03 08:13:23;;;;;;;72.40;30.47;;;4.20;99.90;;;;;;4907520;29;20204;-81
2021/01/03 08:15:49;;;;;;;75.60;32.97;;;4.20;99.90;;;;;;4922512;29;20176;-78
2021/01/03 08:18:19;;;;;;;65.13;30.80;;;4.20;99.90;;;;;;4921637;29;20179;-81
2021/01/03 08:20:46;;;;;;;67.37;30.57;;;4.20;99.90;;;;;;4921413;29;20249;-86
2021/01/03 08:23:26;;;;;;;71.87;31.93;;;4.20;99.90;;;;;;4912177;29;20182;-85
2021/01/03 08:26:23;;;;;;;69.27;31.17;;;4.20;99.90;;;;;;4910386;29;20181;-89
2021/01/03 08:29:18;;;;;;;69.87;29.73;;;4.20;99.90;;;;;;4908318;29;20266;-88
2021/01/03 08:31:51;;;;;;;76.10;32.13;;;4.20;99.90;;;;;;4898138;29;20306;-83
2021/01/03 08:34:23;;;;;;;66.23;31.13;;;4.20;99.90;;;;;;4915396;29;20253;-85
2021/01/03 08:36:49;;;;;;;68.50;32.30;;;4.20;99.90;;;;;;4904603;29;20190;-86
2021/01/03 08:39:16;;;;;;;69.67;32.23;;;4.20;99.90;;;;;;4921771;29;20159;-80
2021/01/03 08:41:59;;;;;;;77.60;32.00;;;4.20;99.90;;;;;;4914767;29;20174;-78
2021/01/03 08:44:57;;;;;;;74.13;30.80;;;4.30;99.90;;;;;;4910207;29;20177;-82
2021/01/03 08:47:38;;;;;;;77.90;34.07;;;4.30;99.90;;;;;;4905991;29;20162;-90
2021/01/03 08:50:28;;;;;;;74.63;32.63;;;4.30;99.90;;;;;;4902892;29;20409;-86
2021/01/03 08:53:05;;;;;;;78.83;31.97;;;4.30;99.90;;;;;;4908289;29;20270;-91
2021/01/03 08:55:35;;;;;;;67.40;30.27;;;4.30;99.90;;;;;;4904755;29;20269;-83
2021/01/03 08:58:03;;;;;;;66.93;30.07;;;4.30;99.90;;;;;;4904095;29;20182;-84
2021/01/03 09:00:35;;;;;;;67.37;33.37;;;4.30;99.90;;;;;;4917956;29;20197;-80
2021/01/03 09:03:05;;;;;;;67.63;29.97;;;4.30;99.90;;;;;;4903517;29;20189;-90
2021/01/03 09:05:33;;;;;;;65.50;29.10;;;4.30;99.90;;;;;;4916616;29;20186;-79
2021/01/03 09:08:01;;;;;;;68.83;31.53;;;4.30;99.90;;;;;;4916070;29;20178;-90
2021/01/03 09:10:38;;;;;;;65.47;29.40;;;4.30;99.90;;;;;;4892389;29;20163;-88
2021/01/03 09:13:13;;;;;;;71.50;32.73;;;4.20;99.90;;;;;;4913541;29;20217;-84
2021/01/03 09:15:45;;;;;;;63.93;30.97;;;4.20;99.90;;;;;;4920186;29;20205;-82
2021/01/03 09:18:28;;;;;;;72.73;33.20;;;4.30;99.90;;;;;;4916152;29;20158;-79
2021/01/03 09:21:08;;;;;;;66.03;33.03;;;4.30;99.90;;;;;;4911897;29;20174;-86
2021/01/03 09:23:39;;;;;;;67.37;29.50;;;4.30;99.90;;;;;;4909352;29;20646;-83
2021/01/03 09:26:09;;;;;;;64.43;31.47;;;4.30;99.90;;;;;;4907034;29;20217;-92
2021/01/03 09:28:38;;;;;;;67.67;33.33;;;4.20;99.90;;;;;;4907187;29;20207;-84
2021/01/03 09:31:16;;;;;;;68.40;31.63;;;4.20;99.90;;;;;;4914931;29;20198;-88
2021/01/03 09:33:49;;;;;;;69.77;32.10;;;4.20;99.90;;;;;;4906321;29;20296;-89
2021/01/03 09:36:35;;;;;;;71.23;32.50;;;4.30;99.90;;;;;;4894287;29;20230;-87
2021/01/03 09:39:23;;;;;;;73.10;34.23;;;4.30;99.90;;;;;;4908426;29;20304;-83
2021/01/03 09:42:34;;;;;;;79.47;33.87;;;4.30;99.90;;;;;;4917495;29;20193;-81
2021/01/03 09:45:26;;;;;;;71.20;31.60;;;4.30;99.90;;;;;;4911320;29;20201;-81
2021/01/03 09:47:52;;;;;;;69.33;32.57;;;4.30;99.90;;;;;;4915925;29;20217;-87
2021/01/03 09:50:28;;;;;;;68.57;32.20;;;4.30;99.90;;;;;;4916422;29;20178;-84
2021/01/03 09:53:10;;;;;;;80.47;34.77;;;4.40;99.90;;;;;;4915835;29;20193;-85
2021/01/03 09:55:59;;;;;;;70.73;33.07;;;4.30;99.90;;;;;;4905604;29;20267;-82
2021/01/03 09:58:46;;;;;;;75.23;34.67;;;4.30;99.90;;;;;;4905224;29;20273;-86
2021/01/03 10:01:31;;;;;;;65.70;33.23;;;4.40;99.90;;;;;;4888165;29;20201;-86
2021/01/03 10:04:23;;;;;;;70.13;33.57;;;4.40;99.90;;;;;;4899103;29;20174;-87
2021/01/03 10:07:27;;;;;;;78.33;35.70;;;4.30;99.90;;;;;;4903215;29;20189;-88
2021/01/03 10:09:54;;;;;;;79.87;37.30;;;4.40;99.90;;;;;;4903510;29;20186;-90
2021/01/03 10:12:25;;;;;;;77.77;35.87;;;4.40;99.90;;;;;;4917503;29;20206;-81
2021/01/03 10:15:16;;;;;;;71.70;34.33;;;4.40;99.90;;;;;;4905388;29;20175;-81
2021/01/03 10:17:58;;;;;;;71.37;33.67;;;4.50;99.90;;;;;;4903299;29;20173;-87
2021/01/03 10:20:45;;;;;;;75.27;33.50;;;4.50;99.90;;;;;;4903672;29;20708;-87
2021/01/03 10:23:37;;;;;;;73.83;33.33;;;4.50;99.90;;;;;;4895639;29;20194;-86
2021/01/03 10:26:23;;;;;;;72.53;32.33;;;4.50;99.90;;;;;;4895494;29;20738;-82
2021/01/03 10:28:49;;;;;;;70.37;32.27;;;4.40;99.90;;;;;;4884484;29;20185;-85
2021/01/03 10:31:16;;;;;;;68.77;34.03;;;4.40;99.90;;;;;;4900211;29;20191;-85
2021/01/03 10:33:44;;;;;;;67.30;33.93;;;4.50;99.90;;;;;;4899919;29;20218;-84
2021/01/03 10:36:22;;;;;;;72.07;35.23;;;4.40;99.90;;;;;;4902511;29;20277;-82
2021/01/03 10:38:48;;;;;;;69.50;34.13;;;4.40;99.90;;;;;;4902156;29;20237;-92
2021/01/03 10:41:15;;;;;;;72.40;34.13;;;4.40;99.90;;;;;;4904575;29;20260;-88
2021/01/03 10:43:42;;;;;;;79.90;36.67;;;4.50;99.90;;;;;;4908875;29;20189;-81
2021/01/03 10:46:08;;;;;;;76.50;37.87;;;4.40;99.90;;;;;;4915889;29;20162;-77
2021/01/03 10:48:34;;;;;;;68.83;32.63;;;4.50;99.90;;;;;;4919073;29;20201;-80
2021/01/03 10:51:03;;;;;;;70.20;32.17;;;4.50;99.90;;;;;;4914185;29;20175;-81
2021/01/03 10:53:28;;;;;;;74.57;35.90;;;4.50;99.90;;;;;;4916491;29;20242;-78
2021/01/03 10:55:54;;;;;;;67.50;32.50;;;4.60;99.90;;;;;;4912413;29;20171;-89
2021/01/03 10:58:19;;;;;;;63.13;31.70;;;4.60;99.90;;;;;;4904795;29;20189;-83
2021/01/03 11:00:48;;;;;;;61.17;31.10;;;4.60;99.90;;;;;;4905708;29;20167;-87
2021/01/03 11:03:14;;;;;;;60.33;30.50;;;4.60;99.90;;;;;;4908072;29;20179;-90
2021/01/03 11:05:40;;;;;;;54.97;28.77;;;4.60;99.90;;;;;;4922160;29;20187;-84
2021/01/03 11:08:05;;;;;;;60.63;30.20;;;4.60;99.90;;;;;;4919893;29;20182;-81
2021/01/03 11:10:31;;;;;;;61.37;29.63;;;4.70;99.90;;;;;;4913515;29;20230;-83
2021/01/03 11:13:10;;;;;;;56.87;29.27;;;4.70;99.90;;;;;;4904714;29;20206;-80
2021/01/03 11:15:36;;;;;;;53.80;28.73;;;4.70;99.90;;;;;;4906048;29;20201;-92
2021/01/03 11:18:04;;;;;;;53.80;27.80;;;4.70;99.90;;;;;;4905669;29;20182;-80
2021/01/03 11:20:36;;;;;;;51.80;27.70;;;4.70;99.90;;;;;;4908562;29;20191;-79
2021/01/03 11:23:02;;;;;;;48.47;28.10;;;4.70;99.90;;;;;;4906999;29;20162;-86
2021/01/03 11:25:27;;;;;;;49.70;22.90;;;4.80;99.90;;;;;;4902201;29;20509;-86
2021/01/03 11:27:56;;;;;;;54.50;26.47;;;4.70;99.90;;;;;;4904125;29;20218;-81
2021/01/03 11:30:22;;;;;;;45.40;23.97;;;4.70;99.90;;;;;;4900826;29;20234;-84
2021/01/03 11:32:47;;;;;;;47.40;26.07;;;4.70;99.90;;;;;;4899814;29;20214;-88
2021/01/03 11:35:16;;;;;;;46.30;24.77;;;4.70;99.90;;;;;;4904635;29;20170;-87
2021/01/03 11:37:41;;;;;;;48.77;24.77;;;4.80;99.90;;;;;;4904185;29;20658;-89
2021/01/03 11:40:08;;;;;;;43.73;24.83;;;4.80;99.90;;;;;;4902800;29;20182;-84
2021/01/03 11:42:37;;;;;;;44.70;25.47;;;4.90;99.90;;;;;;4904241;29;20206;-81
2021/01/03 11:45:06;;;;;;;47.10;25.80;;;4.90;99.90;;;;;;4916335;29;20182;-83
2021/01/03 11:47:32;;;;;;;38.73;23.20;;;4.90;99.90;;;;;;4909953;29;20622;-85
2021/01/03 11:49:58;;;;;;;46.10;24.50;;;5.00;99.90;;;;;;4905943;29;20174;-85
2021/01/03 11:52:27;;;;;;;43.93;24.27;;;4.90;99.90;;;;;;4908465;29;20230;-89
2021/01/03 11:54:53;;;;;;;41.53;23.03;;;4.90;99.90;;;;;;4903773;29;20209;-85
2021/01/03 11:57:22;;;;;;;42.83;23.60;;;4.90;99.90;;;;;;4898572;29;20202;-87
2021/01/03 11:59:49;;;;;;;38.67;23.70;;;5.00;99.90;;;;;;4885689;29;20178;-85
2021/01/03 12:02:16;;;;;;;39.73;22.73;;;4.90;99.90;;;;;;4901919;29;20552;-89
2021/01/03 12:04:43;;;;;;;42.23;23.07;;;4.90;99.90;;;;;;4900801;29;20182;-81
2021/01/03 12:07:17;;;;;;;37.87;20.87;;;4.90;99.90;;;;;;4907622;29;20202;-87
2021/01/03 12:09:44;;;;;;;40.80;22.73;;;4.90;99.90;;;;;;4905915;29;20213;-87
2021/01/03 12:12:12;;;;;;;37.40;21.07;;;4.90;99.90;;;;;;4914218;29;20182;-81
2021/01/03 12:14:39;;;;;;;38.53;20.97;;;4.90;99.90;;;;;;4916848;29;20182;-83
2021/01/03 12:17:12;;;;;;;38.27;21.50;;;4.90;99.90;;;;;;4914733;29;20186;-83
2021/01/03 12:19:39;;;;;;;37.97;21.10;;;4.90;99.90;;;;;;4914918;29;20177;-82
2021/01/03 12:22:57;;;;;;;33.83;20.73;;;5.00;99.90;;;;;;4911502;29;20166;-79
2021/01/03 12:25:58;;;;;;;36.00;19.30;;;4.90;99.90;;;;;;4913847;29;20150;-89
2021/01/03 12:28:35;;;;;;;27.50;16.73;;;4.90;99.90;;;;;;4912109;29;20163;-86
2021/01/03 12:31:02;;;;;;;32.57;17.57;;;4.90;99.90;;;;;;4905327;29;20225;-80
2021/01/03 12:33:28;;;;;;;35.93;20.30;;;4.80;99.90;;;;;;4904063;29;20300;-83
2021/01/03 12:35:56;;;;;;;33.30;19.97;;;4.80;99.90;;;;;;4905397;29;20181;-92
2021/01/03 12:38:23;;;;;;;30.03;18.97;;;4.90;99.90;;;;;;4907069;29;20190;-83
2021/01/03 12:40:50;;;;;;;32.30;18.97;;;4.90;99.90;;;;;;4909903;29;20234;-82
2021/01/03 12:43:15;;;;;;;31.03;19.50;;;5.00;99.90;;;;;;4915719;29;20170;-82
2021/01/03 12:46:16;;;;;;;28.07;16.90;;;5.00;99.90;;;;;;4915181;29;20153;-83
2021/01/03 12:48:44;;;;;;;27.07;17.50;;;5.00;99.90;;;;;;4911598;29;20222;-82
2021/01/03 12:51:14;;;;;;;27.13;17.50;;;4.90;99.90;;;;;;4915511;29;20174;-82
2021/01/03 12:53:40;;;;;;;30.33;17.53;;;4.90;99.90;;;;;;4909700;29;20694;-87
2021/01/03 12:56:06;;;;;;;26.43;16.43;;;5.10;99.90;;;;;;4903623;29;20182;-82
2021/01/03 12:58:33;;;;;;;22.90;15.30;;;5.00;99.90;;;;;;4901410;29;20186;-83
2021/01/03 13:00:58;;;;;;;29.03;17.00;;;4.90;99.90;;;;;;4899192;29;20247;-81
2021/01/03 13:03:25;;;;;;;22.30;15.70;;;5.00;99.90;;;;;;4906244;29;20194;-85
2021/01/03 13:05:54;;;;;;;23.80;15.03;;;5.00;99.90;;;;;;4914149;29;20187;-81
2021/01/03 13:08:20;;;;;;;24.30;14.80;;;5.00;99.90;;;;;;4907785;29;20174;-80
2021/01/03 13:10:46;;;;;;;23.63;14.23;;;4.90;99.90;;;;;;4907339;29;20166;-91
2021/01/03 13:13:13;;;;;;;23.53;15.03;;;5.00;99.90;;;;;;4903660;29;20198;-81
2021/01/03 13:15:39;;;;;;;22.37;15.07;;;5.00;99.90;;;;;;4900486;29;20178;-90
2021/01/03 13:18:05;;;;;;;21.40;14.20;;;4.90;99.90;;;;;;4909869;29;20171;-84